Feng Li Hai — VRQJ6 — position and weather

sailwx.info

Track history (hours):
 
Tides and Currents Weather Stations Pressure Air Temp Water Temp Dewpoint Dewpoint Depression Visibility Wind Speed Wind Dir Waves Ship Positions

Feng Li Hai

Last reported at 2018-Jul-18 04:17 UTC. Time now 2018-Jul-19 01:38 UTC.
Position N 38°43' E 121°51'.

Length 200 m; draft 8.1 m.

Type: Cargo ship. MMSI: 477850200.

Date/timePositionNaut miles runAvg speedWind from/ knotsBaromVisibWave heightAir tempDewpointWater temp
2018-Jul-18 04:17N 38°43' E 121°51'412.6
2018-Jul-18 04:00N 38°45' E 121°48'711.7
2018-Jul-18 03:25N 38°52' E 121°45'1 0.0
2018-Jul-16 10:18N 38°52' E 121°47'4 7.3
2018-Jul-16 09:46N 38°49' E 121°50'2 6.8
2018-Jul-16 09:30N 38°50' E 121°52'7 0.5
2018-Jul-15 21:00N 38°52' E 122°00'4 0.1
2018-Jul-14 08:44N 38°50' E 121°57'713.6
2018-Jul-14 08:14N 38°44' E 121°52'314.9
2018-Jul-14 08:00N 38°41' E 121°50'714.7
2018-Jul-14 07:31N 38°34' E 121°46'4113.5
2018-Jul-14 04:28N 38°06' E 121°08'613.6
2018-Jul-14 04:00N 38°01' E 121°03'511.0
2018-Jul-14 03:30N 37°58' E 120°57'612.9
2018-Jul-14 03:00N 37°60' E 120°49'713.7
2018-Jul-14 02:30N 38°01' E 120°41'713.6
2018-Jul-14 02:00N 38°02' E 120°32'713.5
2018-Jul-14 01:30N 38°01' E 120°24'714.6
2018-Jul-14 01:00N 37°56' E 120°17'714.3
2018-Jul-14 00:30N 37°51' E 120°10'612.7
2018-Jul-14 00:00N 37°45' E 120°10'611.5
2018-Jul-13 23:28N 37°39' E 120°14'3 5.5
2018-Jul-13 23:00N 37°39' E 120°17'0 0.0
2018-Jul-13 19:27N 37°39' E 120°17'0 0.0
2018-Jul-13 18:51N 37°39' E 120°17'0 0.0
2018-Jul-13 18:24N 37°39' E 120°17'0 0.0
2018-Jul-13 17:45N 37°39' E 120°17'0 0.0
2018-Jul-13 17:27N 37°39' E 120°17'0 0.0
2018-Jul-13 17:00N 37°39' E 120°17'0 0.0
2018-Jul-13 16:03N 37°39' E 120°17'0 0.0
2018-Jul-13 15:57N 37°39' E 120°17'0 0.0
2018-Jul-13 15:30N 37°39' E 120°17'0 0.0
2018-Jul-13 14:48N 37°39' E 120°17'0 0.0
2018-Jul-13 13:55N 37°39' E 120°17'0 0.0
2018-Jul-13 13:25N 37°39' E 120°17'0 0.0
2018-Jul-13 12:43N 37°39' E 120°17'0 0.0
2018-Jul-13 12:10N 37°39' E 120°17'0 0.0
2018-Jul-13 11:58N 37°39' E 120°17'0 0.0
2018-Jul-13 11:28N 37°39' E 120°17'0 0.1
2018-Jul-13 10:46N 37°39' E 120°17'0 0.1
2018-Jul-13 10:13N 37°39' E 120°17'0 0.0
2018-Jul-13 09:46N 37°39' E 120°17'0 0.0
2018-Jul-13 06:34N 37°39' E 120°17'0 0.0
2018-Jul-13 05:25N 37°39' E 120°17'0 0.0
2018-Jul-13 04:52N 37°39' E 120°17'0 0.0
2018-Jul-13 03:25N 37°39' E 120°17'0 0.0
2018-Jul-13 02:52N 37°39' E 120°17'0 0.0
2018-Jul-13 02:10N 37°39' E 120°17'0 0.0
2018-Jul-13 01:55N 37°39' E 120°17'0 0.0
2018-Jul-13 01:19N 37°39' E 120°17'0 0.0
2018-Jul-13 00:58N 37°39' E 120°17'0 0.0
2018-Jul-13 00:28N 37°39' E 120°17'0 0.0
2018-Jul-12 23:52N 37°39' E 120°17'0 0.0
2018-Jul-12 23:28N 37°39' E 120°17'0 0.0
2018-Jul-12 22:58N 37°39' E 120°17'0 0.0
2018-Jul-12 22:25N 37°39' E 120°17'0 0.0
2018-Jul-12 21:58N 37°39' E 120°17'0 0.0
2018-Jul-12 21:01N 37°39' E 120°17'0 0.0
2018-Jul-12 20:34N 37°39' E 120°17'0 0.0
2018-Jul-12 20:28N 37°39' E 120°17'0 0.0
2018-Jul-12 19:58N 37°39' E 120°17'0 0.0
2018-Jul-12 19:25N 37°39' E 120°17'0 0.0
2018-Jul-12 18:52N 37°39' E 120°17'0 0.0
2018-Jul-12 17:34N 37°39' E 120°17'0 0.0
2018-Jul-12 17:22N 37°39' E 120°17'0 0.0
2018-Jul-12 15:49N 37°39' E 120°17'0 0.0
2018-Jul-12 15:19N 37°39' E 120°17'0 0.0
2018-Jul-12 14:19N 37°39' E 120°17'0 0.0
2018-Jul-12 13:58N 37°39' E 120°17'0 0.0
2018-Jul-12 12:25N 37°39' E 120°17'0 0.0
2018-Jul-12 11:58N 37°39' E 120°17'0 0.0
2018-Jul-12 11:19N 37°39' E 120°17'0 0.0
2018-Jul-12 10:52N 37°39' E 120°17'0 0.0
2018-Jul-12 10:07N 37°39' E 120°17'0 0.0
2018-Jul-12 09:52N 37°39' E 120°17'0 0.0
2018-Jul-12 07:07N 37°39' E 120°17'0 0.0
2018-Jul-12 01:25N 37°39' E 120°17'0 0.7
2018-Jul-12 01:00N 37°39' E 120°17'3 6.3
2018-Jul-12 00:30N 37°40' E 120°13'4 8.6
2018-Jul-12 00:00N 37°43' E 120°10'3 6.2
2018-Jul-11 23:29N 37°47' E 120°09'1 1.7
2018-Jul-11 22:55N 37°47' E 120°10'0 0.2
2018-Jul-11 22:25N 37°47' E 120°10'0 0.0
2018-Jul-11 21:55N 37°47' E 120°10'0 0.0
2018-Jul-11 21:25N 37°47' E 120°10'0 0.1
2018-Jul-11 20:55N 37°47' E 120°10'0 0.0
2018-Jul-11 20:28N 37°47' E 120°10'0 0.0
2018-Jul-11 19:55N 37°47' E 120°10'0 0.0
2018-Jul-11 19:28N 37°47' E 120°10'0 0.0
2018-Jul-11 18:58N 37°47' E 120°10'0 0.0
2018-Jul-11 18:28N 37°47' E 120°10'0 0.0
2018-Jul-11 17:58N 37°47' E 120°10'0 0.1
2018-Jul-11 17:19N 37°47' E 120°10'0 0.0
2018-Jul-11 16:58N 37°47' E 120°10'0 0.1
2018-Jul-11 16:28N 37°47' E 120°10'0 0.0
2018-Jul-11 15:55N 37°47' E 120°10'0 0.1
2018-Jul-11 15:28N 37°47' E 120°10'0 0.0
2018-Jul-11 14:58N 37°47' E 120°10'0 0.1
2018-Jul-11 14:28N 37°47' E 120°10'0 0.1
2018-Jul-11 13:58N 37°47' E 120°10'0 0.2
2018-Jul-11 13:22N 37°47' E 120°10'0 0.0
2018-Jul-11 12:58N 37°47' E 120°10'0 0.1
2018-Jul-11 12:28N 37°47' E 120°10'0 0.2
2018-Jul-11 11:52N 37°47' E 120°10'0 0.1
2018-Jul-11 11:22N 37°47' E 120°10'0 0.1
2018-Jul-11 10:58N 37°47' E 120°10'0 0.0
2018-Jul-11 10:16N 37°47' E 120°10'0 0.0
2018-Jul-11 09:52N 37°47' E 120°10'0 0.0
2018-Jul-11 09:28N 37°47' E 120°10'0 0.0
2018-Jul-11 08:55N 37°47' E 120°10'0 0.1
2018-Jul-11 08:28N 37°47' E 120°10'0 0.0
2018-Jul-11 07:58N 37°47' E 120°10'0 0.0
2018-Jul-11 07:28N 37°47' E 120°10'0 0.1
2018-Jul-11 06:49N 37°47' E 120°10'0 0.1
2018-Jul-11 06:28N 37°47' E 120°10'0 0.1
2018-Jul-11 05:58N 37°47' E 120°10'0 0.0
2018-Jul-11 05:28N 37°47' E 120°10'0 0.0
2018-Jul-11 04:58N 37°47' E 120°10'0 0.0
2018-Jul-11 04:28N 37°47' E 120°10'0 0.0
2018-Jul-11 03:55N 37°47' E 120°10'0 0.0
2018-Jul-11 03:13N 37°47' E 120°10'0 0.1
2018-Jul-11 02:58N 37°47' E 120°10'0 0.0
2018-Jul-11 02:30N 37°47' E 120°10'1 1.2
2018-Jul-11 02:00N 37°47' E 120°09'5 6.2
2018-Jul-11 01:15N 37°52' E 120°10'311.7
2018-Jul-11 01:00N 37°54' E 120°12'612.5
2018-Jul-11 00:30N 37°59' E 120°17'612.5
2018-Jul-11 00:00N 38°03' E 120°24'611.8
2018-Jul-10 23:30N 38°04' E 120°31'611.8
2018-Jul-10 23:00N 38°02' E 120°38'611.3
2018-Jul-10 22:30N 38°01' E 120°45'611.3
2018-Jul-10 22:00N 38°00' E 120°52'611.3
2018-Jul-10 21:30N 37°59' E 120°59'510.9
2018-Jul-10 21:00N 37°58' E 121°06'610.9
2018-Jul-10 20:30N 37°56' E 121°13'  
Track history (hours):
 
Tides and Currents Weather Stations Pressure Air Temp Water Temp Dewpoint Dewpoint Depression Visibility Wind Speed Wind Dir Waves Ship Positions

Feng Li Hai

Last reported at 2018-Jul-18 04:17 UTC. Time now 2018-Jul-19 01:38 UTC.
Position N 38°43' E 121°51'.

Length 200 m; draft 8.1 m.

Type: Cargo ship. MMSI: 477850200.

Date/timePositionNaut miles runAvg speedWind from/ knotsBaromVisibWave heightAir tempDewpointWater temp
2018-Jul-18 04:17N 38°43' E 121°51'412.6
2018-Jul-18 04:00N 38°45' E 121°48'711.7
2018-Jul-18 03:25N 38°52' E 121°45'1 0.0
2018-Jul-16 10:18N 38°52' E 121°47'4 7.3
2018-Jul-16 09:46N 38°49' E 121°50'2 6.8
2018-Jul-16 09:30N 38°50' E 121°52'7 0.5
2018-Jul-15 21:00N 38°52' E 122°00'4 0.1
2018-Jul-14 08:44N 38°50' E 121°57'713.6
2018-Jul-14 08:14N 38°44' E 121°52'314.9
2018-Jul-14 08:00N 38°41' E 121°50'714.7
2018-Jul-14 07:31N 38°34' E 121°46'4113.5
2018-Jul-14 04:28N 38°06' E 121°08'613.6
2018-Jul-14 04:00N 38°01' E 121°03'511.0
2018-Jul-14 03:30N 37°58' E 120°57'612.9
2018-Jul-14 03:00N 37°60' E 120°49'713.7
2018-Jul-14 02:30N 38°01' E 120°41'713.6
2018-Jul-14 02:00N 38°02' E 120°32'713.5
2018-Jul-14 01:30N 38°01' E 120°24'714.6
2018-Jul-14 01:00N 37°56' E 120°17'714.3
2018-Jul-14 00:30N 37°51' E 120°10'612.7
2018-Jul-14 00:00N 37°45' E 120°10'611.5
2018-Jul-13 23:28N 37°39' E 120°14'3 5.5
2018-Jul-13 23:00N 37°39' E 120°17'0 0.0
2018-Jul-13 19:27N 37°39' E 120°17'0 0.0
2018-Jul-13 18:51N 37°39' E 120°17'0 0.0
2018-Jul-13 18:24N 37°39' E 120°17'0 0.0
2018-Jul-13 17:45N 37°39' E 120°17'0 0.0
2018-Jul-13 17:27N 37°39' E 120°17'0 0.0
2018-Jul-13 17:00N 37°39' E 120°17'0 0.0
2018-Jul-13 16:03N 37°39' E 120°17'0 0.0
2018-Jul-13 15:57N 37°39' E 120°17'0 0.0
2018-Jul-13 15:30N 37°39' E 120°17'0 0.0
2018-Jul-13 14:48N 37°39' E 120°17'0 0.0
2018-Jul-13 13:55N 37°39' E 120°17'0 0.0
2018-Jul-13 13:25N 37°39' E 120°17'0 0.0
2018-Jul-13 12:43N 37°39' E 120°17'0 0.0
2018-Jul-13 12:10N 37°39' E 120°17'0 0.0
2018-Jul-13 11:58N 37°39' E 120°17'0 0.0
2018-Jul-13 11:28N 37°39' E 120°17'0 0.1
2018-Jul-13 10:46N 37°39' E 120°17'0 0.1
2018-Jul-13 10:13N 37°39' E 120°17'0 0.0
2018-Jul-13 09:46N 37°39' E 120°17'0 0.0
2018-Jul-13 06:34N 37°39' E 120°17'0 0.0
2018-Jul-13 05:25N 37°39' E 120°17'0 0.0
2018-Jul-13 04:52N 37°39' E 120°17'0 0.0
2018-Jul-13 03:25N 37°39' E 120°17'0 0.0
2018-Jul-13 02:52N 37°39' E 120°17'0 0.0
2018-Jul-13 02:10N 37°39' E 120°17'0 0.0
2018-Jul-13 01:55N 37°39' E 120°17'0 0.0
2018-Jul-13 01:19N 37°39' E 120°17'0 0.0
2018-Jul-13 00:58N 37°39' E 120°17'0 0.0
2018-Jul-13 00:28N 37°39' E 120°17'0 0.0
2018-Jul-12 23:52N 37°39' E 120°17'0 0.0
2018-Jul-12 23:28N 37°39' E 120°17'0 0.0
2018-Jul-12 22:58N 37°39' E 120°17'0 0.0
2018-Jul-12 22:25N 37°39' E 120°17'0 0.0
2018-Jul-12 21:58N 37°39' E 120°17'0 0.0
2018-Jul-12 21:01N 37°39' E 120°17'0 0.0
2018-Jul-12 20:34N 37°39' E 120°17'0 0.0
2018-Jul-12 20:28N 37°39' E 120°17'0 0.0
2018-Jul-12 19:58N 37°39' E 120°17'0 0.0
2018-Jul-12 19:25N 37°39' E 120°17'0 0.0
2018-Jul-12 18:52N 37°39' E 120°17'0 0.0
2018-Jul-12 17:34N 37°39' E 120°17'0 0.0
2018-Jul-12 17:22N 37°39' E 120°17'0 0.0
2018-Jul-12 15:49N 37°39' E 120°17'0 0.0
2018-Jul-12 15:19N 37°39' E 120°17'0 0.0
2018-Jul-12 14:19N 37°39' E 120°17'0 0.0
2018-Jul-12 13:58N 37°39' E 120°17'0 0.0
2018-Jul-12 12:25N 37°39' E 120°17'0 0.0
2018-Jul-12 11:58N 37°39' E 120°17'0 0.0
2018-Jul-12 11:19N 37°39' E 120°17'0 0.0
2018-Jul-12 10:52N 37°39' E 120°17'0 0.0
2018-Jul-12 10:07N 37°39' E 120°17'0 0.0
2018-Jul-12 09:52N 37°39' E 120°17'0 0.0
2018-Jul-12 07:07N 37°39' E 120°17'0 0.0
2018-Jul-12 01:25N 37°39' E 120°17'0 0.7
2018-Jul-12 01:00N 37°39' E 120°17'3 6.3
2018-Jul-12 00:30N 37°40' E 120°13'4 8.6
2018-Jul-12 00:00N 37°43' E 120°10'3 6.2
2018-Jul-11 23:29N 37°47' E 120°09'1 1.7
2018-Jul-11 22:55N 37°47' E 120°10'0 0.2
2018-Jul-11 22:25N 37°47' E 120°10'0 0.0
2018-Jul-11 21:55N 37°47' E 120°10'0 0.0
2018-Jul-11 21:25N 37°47' E 120°10'0 0.1
2018-Jul-11 20:55N 37°47' E 120°10'0 0.0
2018-Jul-11 20:28N 37°47' E 120°10'0 0.0
2018-Jul-11 19:55N 37°47' E 120°10'0 0.0
2018-Jul-11 19:28N 37°47' E 120°10'0 0.0
2018-Jul-11 18:58N 37°47' E 120°10'0 0.0
2018-Jul-11 18:28N 37°47' E 120°10'0 0.0
2018-Jul-11 17:58N 37°47' E 120°10'0 0.1
2018-Jul-11 17:19N 37°47' E 120°10'0 0.0
2018-Jul-11 16:58N 37°47' E 120°10'0 0.1
2018-Jul-11 16:28N 37°47' E 120°10'0 0.0
2018-Jul-11 15:55N 37°47' E 120°10'0 0.1
2018-Jul-11 15:28N 37°47' E 120°10'0 0.0
2018-Jul-11 14:58N 37°47' E 120°10'0 0.1
2018-Jul-11 14:28N 37°47' E 120°10'0 0.1
2018-Jul-11 13:58N 37°47' E 120°10'0 0.2
2018-Jul-11 13:22N 37°47' E 120°10'0 0.0
2018-Jul-11 12:58N 37°47' E 120°10'0 0.1
2018-Jul-11 12:28N 37°47' E 120°10'0 0.2
2018-Jul-11 11:52N 37°47' E 120°10'0 0.1
2018-Jul-11 11:22N 37°47' E 120°10'0 0.1
2018-Jul-11 10:58N 37°47' E 120°10'0 0.0
2018-Jul-11 10:16N 37°47' E 120°10'0 0.0
2018-Jul-11 09:52N 37°47' E 120°10'0 0.0
2018-Jul-11 09:28N 37°47' E 120°10'0 0.0
2018-Jul-11 08:55N 37°47' E 120°10'0 0.1
2018-Jul-11 08:28N 37°47' E 120°10'0 0.0
2018-Jul-11 07:58N 37°47' E 120°10'0 0.0
2018-Jul-11 07:28N 37°47' E 120°10'0 0.1
2018-Jul-11 06:49N 37°47' E 120°10'0 0.1
2018-Jul-11 06:28N 37°47' E 120°10'0 0.1
2018-Jul-11 05:58N 37°47' E 120°10'0 0.0
2018-Jul-11 05:28N 37°47' E 120°10'0 0.0
2018-Jul-11 04:58N 37°47' E 120°10'0 0.0
2018-Jul-11 04:28N 37°47' E 120°10'0 0.0
2018-Jul-11 03:55N 37°47' E 120°10'0 0.0
2018-Jul-11 03:13N 37°47' E 120°10'0 0.1
2018-Jul-11 02:58N 37°47' E 120°10'0 0.0
2018-Jul-11 02:30N 37°47' E 120°10'1 1.2
2018-Jul-11 02:00N 37°47' E 120°09'5 6.2
2018-Jul-11 01:15N 37°52' E 120°10'311.7
2018-Jul-11 01:00N 37°54' E 120°12'612.5
2018-Jul-11 00:30N 37°59' E 120°17'612.5
2018-Jul-11 00:00N 38°03' E 120°24'611.8
2018-Jul-10 23:30N 38°04' E 120°31'611.8
2018-Jul-10 23:00N 38°02' E 120°38'611.3
2018-Jul-10 22:30N 38°01' E 120°45'611.3
2018-Jul-10 22:00N 38°00' E 120°52'611.3
2018-Jul-10 21:30N 37°59' E 120°59'510.9
2018-Jul-10 21:00N 37°58' E 121°06'610.9
2018-Jul-10 20:30N 37°56' E 121°13'  

Dump ship's entire track history